Time;durP1;ratioP1;P1;durP2;ratioP2;P2;SDS_P1;SDS_P2;PMS_P1;PMS_P2;Temp;Humidity;BMP_temperature;BMP_pressure;BME280_temperature;BME280_humidity;BME280_pressure;Samples;Min_cycle;Max_cycle;Signal;HPM_P1;HPM_P2
2021/07/26 00:01:27;;;;;;;8.35;7.43;;;;;;;;;;5025716;28;20025;-72
2021/07/26 00:03:53;;;;;;;11.50;8.48;;;;;;;;;;5031988;28;20079;-72
2021/07/26 00:06:19;;;;;;;12.63;10.32;;;;;;;;;;5030167;28;20051;-72
2021/07/26 00:08:46;;;;;;;13.23;10.48;;;;;;;;;;5023553;28;20029;-71
2021/07/26 00:11:12;;;;;;;13.02;10.43;;;;;;;;;;5031899;28;20405;-72
2021/07/26 00:13:39;;;;;;;13.18;10.75;;;;;;;;;;5030178;28;20029;-72
2021/07/26 00:16:06;;;;;;;11.00;9.85;;;;;;;;;;5029710;28;20052;-72
2021/07/26 00:18:32;;;;;;;10.98;9.88;;;;;;;;;;5029967;28;20039;-72
2021/07/26 00:20:59;;;;;;;10.52;9.43;;;;;;;;;;5031463;28;20037;-72
2021/07/26 00:23:26;;;;;;;12.20;10.43;;;;;;;;;;5028879;28;20030;-72
2021/07/26 00:25:52;;;;;;;11.93;10.57;;;;;;;;;;5035540;28;20032;-71
2021/07/26 00:28:19;;;;;;;11.88;9.98;;;;;;;;;;5030469;28;20168;-72
2021/07/26 00:30:45;;;;;;;11.88;10.70;;;;;;;;;;5031527;28;20040;-71
2021/07/26 00:33:46;;;;;;;11.80;10.63;;;;;;;;;;5031689;28;20021;-72
2021/07/26 00:36:13;;;;;;;12.30;11.10;;;;;;;;;;5026070;28;20044;-73
2021/07/26 00:38:39;;;;;;;13.82;10.95;;;;;;;;;;5025970;28;20524;-71
2021/07/26 00:41:05;;;;;;;11.60;10.40;;;;;;;;;;5029820;28;20083;-72
2021/07/26 00:43:31;;;;;;;11.70;10.60;;;;;;;;;;5027460;28;20113;-72
2021/07/26 00:45:57;;;;;;;12.27;11.18;;;;;;;;;;5029949;28;20022;-73
2021/07/26 00:48:23;;;;;;;13.68;12.27;;;;;;;;;;5036025;28;20041;-71
2021/07/26 00:50:52;;;;;;;13.27;12.05;;;;;;;;;;5019301;28;20436;-72
2021/07/26 00:53:19;;;;;;;13.60;12.30;;;;;;;;;;5025801;28;20266;-72
2021/07/26 00:55:45;;;;;;;13.10;11.75;;;;;;;;;;5029690;28;20033;-72
2021/07/26 00:58:11;;;;;;;13.52;12.10;;;;;;;;;;5029267;28;20021;-72
2021/07/26 01:00:37;;;;;;;12.63;11.40;;;;;;;;;;5029465;28;20025;-72
2021/07/26 01:03:03;;;;;;;13.05;10.82;;;;;;;;;;5027942;28;20022;-71
2021/07/26 01:05:29;;;;;;;12.15;10.85;;;;;;;;;;5028839;28;20035;-72
2021/07/26 01:07:55;;;;;;;11.38;10.07;;;;;;;;;;5032283;28;20030;-72
2021/07/26 01:10:22;;;;;;;11.05;9.25;;;;;;;;;;5040090;28;20048;-71
2021/07/26 01:12:48;;;;;;;11.52;10.45;;;;;;;;;;5029629;28;20029;-71
2021/07/26 01:15:14;;;;;;;11.90;10.80;;;;;;;;;;5033870;28;20029;-72
2021/07/26 01:18:14;;;;;;;13.25;11.85;;;;;;;;;;5030467;28;20035;-72
2021/07/26 01:20:41;;;;;;;13.73;12.32;;;;;;;;;;5027605;28;20052;-72
2021/07/26 01:23:07;;;;;;;15.10;12.57;;;;;;;;;;5028694;28;20497;-72
2021/07/26 01:25:37;;;;;;;13.57;12.20;;;;;;;;;;5029347;28;20024;-72
2021/07/26 01:28:04;;;;;;;13.98;12.52;;;;;;;;;;5021789;28;20029;-72
2021/07/26 01:30:31;;;;;;;13.93;12.45;;;;;;;;;;5027848;28;20401;-71
2021/07/26 01:32:58;;;;;;;20.55;13.13;;;;;;;;;;5029400;28;20025;-72
2021/07/26 01:35:24;;;;;;;14.57;13.05;;;;;;;;;;5029534;28;20502;-72
2021/07/26 01:37:50;;;;;;;15.73;14.23;;;;;;;;;;5029182;28;20026;-72
2021/07/26 01:40:16;;;;;;;15.15;13.75;;;;;;;;;;5028988;28;20033;-72
2021/07/26 01:42:43;;;;;;;15.98;14.48;;;;;;;;;;5027657;28;20614;-73
2021/07/26 01:45:10;;;;;;;15.70;14.15;;;;;;;;;;5028432;28;20041;-72
2021/07/26 01:47:41;;;;;;;15.70;14.10;;;;;;;;;;5029245;28;20210;-73
2021/07/26 01:50:09;;;;;;;15.98;14.48;;;;;;;;;;5027415;28;20098;-72
2021/07/26 01:52:35;;;;;;;15.30;13.80;;;;;;;;;;5023700;28;20036;-72
2021/07/26 01:55:02;;;;;;;15.02;13.52;;;;;;;;;;5030671;28;20021;-72
2021/07/26 01:57:28;;;;;;;16.88;14.27;;;;;;;;;;5030637;28;20018;-72
2021/07/26 01:59:54;;;;;;;14.95;13.50;;;;;;;;;;5029320;28;20397;-71
2021/07/26 02:02:22;;;;;;;15.43;13.93;;;;;;;;;;5027990;28;20025;-72
2021/07/26 02:04:50;;;;;;;14.77;12.88;;;;;;;;;;5031260;28;20519;-72
2021/07/26 02:07:16;;;;;;;14.45;13.05;;;;;;;;;;5030831;28;20022;-72
2021/07/26 02:09:43;;;;;;;13.18;11.98;;;;;;;;;;5033090;28;20033;-72
2021/07/26 02:12:09;;;;;;;13.35;11.95;;;;;;;;;;5035739;28;20840;-71
2021/07/26 02:14:35;;;;;;;13.48;12.07;;;;;;;;;;5029738;28;20403;-71
2021/07/26 02:17:01;;;;;;;11.88;10.68;;;;;;;;;;5030761;28;20596;-72
2021/07/26 02:19:27;;;;;;;12.80;11.50;;;;;;;;;;5031781;28;20117;-72
2021/07/26 02:21:53;;;;;;;13.30;11.23;;;;;;;;;;5029071;28;20028;-71
2021/07/26 02:24:20;;;;;;;13.45;12.07;;;;;;;;;;5032360;28;20037;-71
2021/07/26 02:26:46;;;;;;;12.05;10.88;;;;;;;;;;5034281;28;20021;-72
2021/07/26 02:29:12;;;;;;;13.30;12.05;;;;;;;;;;5030306;28;20067;-72
2021/07/26 02:31:38;;;;;;;15.25;11.88;;;;;;;;;;5033491;28;20466;-72
2021/07/26 02:34:04;;;;;;;13.07;11.88;;;;;;;;;;5031536;28;20648;-72
2021/07/26 02:36:30;;;;;;;12.65;11.35;;;;;;;;;;5027953;28;20021;-71
2021/07/26 02:38:56;;;;;;;13.43;12.20;;;;;;;;;;5030001;28;20031;-72
2021/07/26 02:41:23;;;;;;;13.57;11.82;;;;;;;;;;5031182;28;20025;-72
2021/07/26 02:43:49;;;;;;;12.65;11.35;;;;;;;;;;5035402;28;20033;-72
2021/07/26 02:46:15;;;;;;;12.48;11.25;;;;;;;;;;5032506;28;20541;-72
2021/07/26 02:48:41;;;;;;;12.57;11.40;;;;;;;;;;5034217;28;20021;-72
2021/07/26 02:51:08;;;;;;;12.30;11.20;;;;;;;;;;5029320;28;20039;-72
2021/07/26 02:53:34;;;;;;;14.05;12.00;;;;;;;;;;5033886;28;20071;-72
2021/07/26 02:56:00;;;;;;;12.40;11.10;;;;;;;;;;5030768;28;20115;-71
2021/07/26 02:58:27;;;;;;;12.35;11.10;;;;;;;;;;5027610;28;20025;-72
2021/07/26 03:00:53;;;;;;;13.90;10.88;;;;;;;;;;5027059;28;20033;-72
2021/07/26 03:03:19;;;;;;;13.70;11.38;;;;;;;;;;5026529;28;20032;-72
2021/07/26 03:05:45;;;;;;;12.65;10.95;;;;;;;;;;5030108;28;20017;-71
2021/07/26 03:08:11;;;;;;;14.07;11.60;;;;;;;;;;5027151;28;20521;-72
2021/07/26 03:10:37;;;;;;;12.63;11.20;;;;;;;;;;5029554;28;20091;-71
2021/07/26 03:13:04;;;;;;;12.88;11.68;;;;;;;;;;5025569;28;20034;-71
2021/07/26 03:15:30;;;;;;;12.27;11.05;;;;;;;;;;5024540;28;20025;-71
2021/07/26 03:17:56;;;;;;;12.48;11.18;;;;;;;;;;5027078;28;20083;-71
2021/07/26 03:20:22;;;;;;;12.23;10.85;;;;;;;;;;5031656;28;20813;-71
2021/07/26 03:23:05;;;;;;;15.32;11.55;;;;;;;;;;5025392;28;20110;-71
2021/07/26 03:25:32;;;;;;;14.20;11.35;;;;;;;;;;5030079;28;20457;-71
2021/07/26 03:27:59;;;;;;;12.68;10.77;;;;;;;;;;5025872;28;20029;-71
2021/07/26 03:30:25;;;;;;;10.93;9.82;;;;;;;;;;5028588;28;20037;-71
2021/07/26 03:32:52;;;;;;;11.70;10.45;;;;;;;;;;5021749;28;20021;-71
2021/07/26 03:35:18;;;;;;;12.77;10.18;;;;;;;;;;5026231;28;20025;-71
2021/07/26 03:37:44;;;;;;;14.55;11.15;;;;;;;;;;5024497;28;20442;-71
2021/07/26 03:40:11;;;;;;;11.73;10.27;;;;;;;;;;5026965;28;20033;-71
2021/07/26 03:42:37;;;;;;;12.82;10.55;;;;;;;;;;5023938;28;20035;-71
2021/07/26 03:45:04;;;;;;;11.85;10.60;;;;;;;;;;5020576;28;20098;-71
2021/07/26 03:47:30;;;;;;;11.90;10.15;;;;;;;;;;5030446;28;20025;-71
2021/07/26 03:49:56;;;;;;;11.07;10.05;;;;;;;;;;5026046;28;20041;-71
2021/07/26 03:52:23;;;;;;;12.05;10.63;;;;;;;;;;5029437;28;20041;-71
2021/07/26 03:54:49;;;;;;;11.80;10.60;;;;;;;;;;5024631;28;20861;-71
2021/07/26 03:57:15;;;;;;;12.43;11.13;;;;;;;;;;5027974;28;20505;-71
2021/07/26 03:59:41;;;;;;;11.65;10.50;;;;;;;;;;5023311;28;20420;-71
2021/07/26 04:02:07;;;;;;;13.02;11.57;;;;;;;;;;5023602;28;20505;-72
2021/07/26 04:04:33;;;;;;;12.75;11.45;;;;;;;;;;5024217;28;20037;-71
2021/07/26 04:07:07;;;;;;;12.93;11.55;;;;;;;;;;5026774;28;20032;-71
2021/07/26 04:09:41;;;;;;;12.35;11.25;;;;;;;;;;5018222;28;20056;-71
2021/07/26 04:12:11;;;;;;;13.35;10.70;;;;;;;;;;5026376;28;20034;-71
2021/07/26 04:14:40;;;;;;;12.43;10.55;;;;;;;;;;5026618;28;20030;-71
2021/07/26 04:17:07;;;;;;;12.63;10.15;;;;;;;;;;5028498;28;20112;-71
2021/07/26 04:19:33;;;;;;;11.70;10.50;;;;;;;;;;5024670;28;20125;-71
2021/07/26 04:21:59;;;;;;;12.25;10.95;;;;;;;;;;5027200;28;20805;-71
2021/07/26 04:24:26;;;;;;;12.38;11.05;;;;;;;;;;5021485;28;20033;-71
2021/07/26 04:26:52;;;;;;;11.75;10.68;;;;;;;;;;5031061;28;20025;-71
2021/07/26 04:29:19;;;;;;;13.20;11.80;;;;;;;;;;5031949;28;20547;-71
2021/07/26 04:31:46;;;;;;;14.02;10.70;;;;;;;;;;5029335;28;20098;-71
2021/07/26 04:34:12;;;;;;;13.27;11.45;;;;;;;;;;5029205;28;20036;-71
2021/07/26 04:36:38;;;;;;;11.85;10.70;;;;;;;;;;5029328;28;20116;-71
2021/07/26 04:39:04;;;;;;;12.98;11.07;;;;;;;;;;5031726;28;20038;-71
2021/07/26 04:41:32;;;;;;;13.60;11.68;;;;;;;;;;5028384;28;20029;-71
2021/07/26 04:43:59;;;;;;;12.32;11.23;;;;;;;;;;5030808;28;20021;-71
2021/07/26 04:46:25;;;;;;;12.57;11.27;;;;;;;;;;5026252;28;20017;-71
2021/07/26 04:48:52;;;;;;;13.27;11.88;;;;;;;;;;5030081;28;20033;-71
2021/07/26 04:51:18;;;;;;;13.80;11.55;;;;;;;;;;5032853;28;20094;-71
2021/07/26 04:53:44;;;;;;;12.38;11.25;;;;;;;;;;5029899;28;20048;-71
2021/07/26 04:56:10;;;;;;;13.77;11.70;;;;;;;;;;5033277;28;20034;-71
2021/07/26 04:58:37;;;;;;;13.27;11.88;;;;;;;;;;5018922;28;20021;-71
2021/07/26 05:01:03;;;;;;;25.38;13.07;;;;;;;;;;5022847;28;20020;-71
2021/07/26 05:03:30;;;;;;;19.08;12.45;;;;;;;;;;5027030;28;20040;-71
2021/07/26 05:05:56;;;;;;;26.00;12.73;;;;;;;;;;5028611;28;20021;-73
2021/07/26 05:08:22;;;;;;;15.30;11.65;;;;;;;;;;5027171;28;20030;-72
2021/07/26 05:10:48;;;;;;;14.82;11.82;;;;;;;;;;5029534;28;20123;-71
2021/07/26 05:13:15;;;;;;;15.00;11.73;;;;;;;;;;5029263;28;20048;-72
2021/07/26 05:15:41;;;;;;;15.63;12.70;;;;;;;;;;5024512;28;20032;-71
2021/07/26 05:18:08;;;;;;;13.98;12.15;;;;;;;;;;5028014;28;20413;-74
2021/07/26 05:20:34;;;;;;;26.25;12.98;;;;;;;;;;5025019;28;20049;-72
2021/07/26 05:23:00;;;;;;;15.48;12.50;;;;;;;;;;5025674;28;20114;-73
2021/07/26 05:25:26;;;;;;;17.08;11.93;;;;;;;;;;5020208;28;20036;-73
2021/07/26 05:27:52;;;;;;;14.07;12.50;;;;;;;;;;5025699;28;20034;-72
2021/07/26 05:30:19;;;;;;;13.68;12.25;;;;;;;;;;5026984;28;20064;-74
2021/07/26 05:32:45;;;;;;;17.23;12.73;;;;;;;;;;5024781;28;20087;-72
2021/07/26 05:35:11;;;;;;;21.52;12.77;;;;;;;;;;5027193;28;20104;-73
2021/07/26 05:37:37;;;;;;;14.15;12.35;;;;;;;;;;5017681;28;20060;-73
2021/07/26 05:40:04;;;;;;;14.57;12.63;;;;;;;;;;5024301;28;20017;-74
2021/07/26 05:42:30;;;;;;;14.20;12.05;;;;;;;;;;5030136;28;20191;-73
2021/07/26 05:44:56;;;;;;;17.33;11.85;;;;;;;;;;5026494;28;20078;-74
2021/07/26 05:47:22;;;;;;;13.75;12.35;;;;;;;;;;5029290;28;20033;-73
2021/07/26 05:49:49;;;;;;;14.10;11.70;;;;;;;;;;5027074;28;20049;-74
2021/07/26 05:52:16;;;;;;;13.38;11.25;;;;;;;;;;5029546;28;20022;-75
2021/07/26 05:54:42;;;;;;;18.25;12.70;;;;;;;;;;5028177;28;20037;-72
2021/07/26 05:57:12;;;;;;;31.48;14.35;;;;;;;;;;5019156;28;20426;-74
2021/07/26 05:59:38;;;;;;;16.85;12.60;;;;;;;;;;5024607;28;20591;-73
2021/07/26 06:02:04;;;;;;;20.30;14.43;;;;;;;;;;5038115;28;20110;-72
2021/07/26 06:04:30;;;;;;;20.65;14.65;;;;;;;;;;5036814;28;20626;-72
2021/07/26 06:06:58;;;;;;;19.23;16.00;;;;;;;;;;5037830;28;20405;-73
2021/07/26 06:09:24;;;;;;;17.58;13.88;;;;;;;;;;5034848;28;20033;-72
2021/07/26 06:11:51;;;;;;;22.98;16.60;;;;;;;;;;5039292;28;20550;-74
2021/07/26 06:14:18;;;;;;;27.90;18.33;;;;;;;;;;5038933;28;20484;-72
2021/07/26 06:16:45;;;;;;;21.85;16.83;;;;;;;;;;5041630;28;20035;-72
2021/07/26 06:19:12;;;;;;;20.00;15.32;;;;;;;;;;5043723;28;20103;-72
2021/07/26 06:21:45;;;;;;;16.25;14.57;;;;;;;;;;5043396;28;20057;-72
2021/07/26 06:24:12;;;;;;;15.82;13.98;;;;;;;;;;5043120;28;20035;-72
2021/07/26 06:26:38;;;;;;;18.77;14.75;;;;;;;;;;5041513;28;20104;-76
2021/07/26 06:29:04;;;;;;;19.27;15.10;;;;;;;;;;5043265;28;20017;-72
2021/07/26 06:31:32;;;;;;;21.88;14.82;;;;;;;;;;5043221;28;20131;-73
2021/07/26 06:33:59;;;;;;;20.02;14.23;;;;;;;;;;5041141;28;20024;-72
2021/07/26 06:36:25;;;;;;;20.70;15.20;;;;;;;;;;5043056;28;20025;-72
2021/07/26 06:38:51;;;;;;;22.83;14.77;;;;;;;;;;5042620;28;20025;-72
2021/07/26 06:41:18;;;;;;;22.20;14.43;;;;;;;;;;5043315;28;20025;-72
2021/07/26 06:43:45;;;;;;;18.13;13.20;;;;;;;;;;5032958;28;20037;-77
2021/07/26 06:46:11;;;;;;;15.30;13.18;;;;;;;;;;5022172;28;20113;-72
2021/07/26 06:48:37;;;;;;;21.33;13.68;;;;;;;;;;5013974;28;20036;-74
2021/07/26 06:51:04;;;;;;;17.33;12.82;;;;;;;;;;5020940;28;20036;-72
2021/07/26 06:53:30;;;;;;;16.48;13.20;;;;;;;;;;5010038;28;20947;-72
2021/07/26 06:55:57;;;;;;;17.00;12.93;;;;;;;;;;5019068;28;20033;-72
2021/07/26 06:58:23;;;;;;;14.45;12.20;;;;;;;;;;5012694;28;20025;-73
2021/07/26 07:00:49;;;;;;;13.70;11.55;;;;;;;;;;5007402;28;20104;-76
2021/07/26 07:03:15;;;;;;;12.63;10.68;;;;;;;;;;5017931;28;20029;-77
2021/07/26 07:05:41;;;;;;;13.15;10.73;;;;;;;;;;5017302;28;20398;-76
2021/07/26 07:08:07;;;;;;;13.63;9.98;;;;;;;;;;5018898;28;20026;-74
2021/07/26 07:10:33;;;;;;;12.80;10.43;;;;;;;;;;5015540;28;20629;-76
2021/07/26 07:13:00;;;;;;;14.68;7.75;;;;;;;;;;5020162;28;20025;-73
2021/07/26 07:15:27;;;;;;;8.70;7.65;;;;;;;;;;5009272;28;20401;-73
2021/07/26 07:17:53;;;;;;;9.60;7.13;;;;;;;;;;5008172;28;20029;-72
2021/07/26 07:20:20;;;;;;;9.32;7.18;;;;;;;;;;5009350;28;20103;-73
2021/07/26 07:22:46;;;;;;;8.73;7.07;;;;;;;;;;5003412;28;20037;-76
2021/07/26 07:25:12;;;;;;;9.75;8.07;;;;;;;;;;5014902;28;20020;-76
2021/07/26 07:27:39;;;;;;;8.60;7.32;;;;;;;;;;5013949;28;20109;-73
2021/07/26 07:30:06;;;;;;;10.88;7.68;;;;;;;;;;5002579;28;20048;-73
2021/07/26 07:32:35;;;;;;;9.65;8.13;;;;;;;;;;5010367;28;20022;-73
2021/07/26 07:35:01;;;;;;;8.80;7.85;;;;;;;;;;5010905;28;20564;-73
2021/07/26 07:37:27;;;;;;;8.90;7.68;;;;;;;;;;5012379;28;20021;-73
2021/07/26 07:39:53;;;;;;;10.00;8.25;;;;;;;;;;5010510;28;20100;-72
2021/07/26 07:42:19;;;;;;;10.18;8.68;;;;;;;;;;5010794;28;20034;-72
2021/07/26 07:44:47;;;;;;;11.38;10.15;;;;;;;;;;5015248;28;20041;-72
2021/07/26 07:47:14;;;;;;;12.25;11.02;;;;;;;;;;5010268;28;20465;-72
2021/07/26 07:49:42;;;;;;;13.82;11.77;;;;;;;;;;5015328;28;20053;-72
2021/07/26 07:52:11;;;;;;;14.55;13.02;;;;;;;;;;5010884;28;20374;-72
2021/07/26 07:54:37;;;;;;;15.45;14.02;;;;;;;;;;5012575;28;20041;-75
2021/07/26 07:57:04;;;;;;;17.52;13.45;;;;;;;;;;5010623;28;20662;-73
2021/07/26 07:59:31;;;;;;;15.07;13.55;;;;;;;;;;5012093;28;20056;-73
2021/07/26 08:01:57;;;;;;;14.73;12.10;;;;;;;;;;5010589;28;20033;-73
2021/07/26 08:04:23;;;;;;;14.73;13.23;;;;;;;;;;5010172;28;20480;-77
2021/07/26 08:06:50;;;;;;;14.35;12.88;;;;;;;;;;5010096;28;20037;-72
2021/07/26 08:09:16;;;;;;;17.95;14.13;;;;;;;;;;5010688;28;20584;-74
2021/07/26 08:11:43;;;;;;;14.07;12.68;;;;;;;;;;5012285;28;20160;-74
2021/07/26 08:14:09;;;;;;;15.75;13.77;;;;;;;;;;5011617;28;20079;-73
2021/07/26 08:16:37;;;;;;;14.05;12.75;;;;;;;;;;5016144;28;20030;-73
2021/07/26 08:19:03;;;;;;;15.05;13.43;;;;;;;;;;5015358;28;20045;-72
2021/07/26 08:21:29;;;;;;;15.07;13.55;;;;;;;;;;5013886;28;20026;-72
2021/07/26 08:23:57;;;;;;;15.32;12.95;;;;;;;;;;5001859;28;20456;-72
2021/07/26 08:26:24;;;;;;;14.43;12.98;;;;;;;;;;5011510;28;20468;-72
2021/07/26 08:28:50;;;;;;;14.15;12.65;;;;;;;;;;5019466;28;20036;-73
2021/07/26 08:31:16;;;;;;;13.93;12.68;;;;;;;;;;5009730;28;20046;-75
2021/07/26 08:33:42;;;;;;;14.18;11.20;;;;;;;;;;5009284;28;20040;-75
2021/07/26 08:36:10;;;;;;;13.38;12.07;;;;;;;;;;5008255;28;20152;-73
2021/07/26 08:38:36;;;;;;;13.02;11.50;;;;;;;;;;5003462;28;20684;-73
2021/07/26 08:41:02;;;;;;;13.13;11.82;;;;;;;;;;5015794;28;20580;-73
2021/07/26 08:43:29;;;;;;;12.63;11.23;;;;;;;;;;5015605;28;20060;-74
2021/07/26 08:45:55;;;;;;;12.40;8.45;;;;;;;;;;5010936;28;20045;-73
2021/07/26 08:48:23;;;;;;;9.95;8.95;;;;;;;;;;5001472;28;20045;-75
2021/07/26 08:50:50;;;;;;;12.13;9.38;;;;;;;;;;5019343;28;20047;-73
2021/07/26 08:53:19;;;;;;;12.43;8.50;;;;;;;;;;5021966;28;20087;-75
2021/07/26 08:55:48;;;;;;;14.25;8.10;;;;;;;;;;5008734;28;20036;-75
2021/07/26 08:58:16;;;;;;;10.38;8.23;;;;;;;;;;5009350;28;20600;-78
2021/07/26 09:00:42;;;;;;;9.70;7.97;;;;;;;;;;5003444;28;20032;-73
2021/07/26 09:03:09;;;;;;;9.68;8.68;;;;;;;;;;5004629;28;20014;-74
2021/07/26 09:05:35;;;;;;;11.95;8.35;;;;;;;;;;5014305;28;20109;-73
2021/07/26 09:08:02;;;;;;;9.45;8.48;;;;;;;;;;5019861;28;20036;-74
2021/07/26 09:10:29;;;;;;;9.80;8.80;;;;;;;;;;5029435;28;20045;-74
2021/07/26 09:12:56;;;;;;;9.68;8.35;;;;;;;;;;5020698;28;20100;-77
2021/07/26 09:15:23;;;;;;;11.93;9.23;;;;;;;;;;5008578;28;20088;-78
2021/07/26 09:17:49;;;;;;;10.10;9.20;;;;;;;;;;5011093;28;20030;-75
2021/07/26 09:20:16;;;;;;;12.00;9.60;;;;;;;;;;5012533;28;20109;-77
2021/07/26 09:22:43;;;;;;;16.70;14.93;;;;;;;;;;5007122;28;20021;-73
2021/07/26 09:25:14;;;;;;;14.95;13.05;;;;;;;;;;5016737;28;20057;-75
2021/07/26 09:28:00;;;;;;;13.88;12.43;;;;;;;;;;5017091;28;20065;-73
2021/07/26 09:30:28;;;;;;;13.50;11.70;;;;;;;;;;5023543;28;20037;-73
2021/07/26 09:32:54;;;;;;;13.82;11.27;;;;;;;;;;5013418;28;20084;-74
2021/07/26 09:35:24;;;;;;;12.38;11.20;;;;;;;;;;5012515;28;20632;-73
2021/07/26 09:37:57;;;;;;;11.63;10.43;;;;;;;;;;5009210;28;20066;-79
2021/07/26 09:40:24;;;;;;;11.30;9.48;;;;;;;;;;5016880;28;20060;-77
2021/07/26 09:42:51;;;;;;;11.80;9.32;;;;;;;;;;5016338;28;20038;-74
2021/07/26 09:45:23;;;;;;;10.40;9.18;;;;;;;;;;5012292;28;20018;-75
2021/07/26 09:48:06;;;;;;;10.55;9.55;;;;;;;;;;5007111;28;20037;-74
2021/07/26 09:50:36;;;;;;;10.75;9.25;;;;;;;;;;5010726;28;20068;-73
2021/07/26 09:53:08;;;;;;;10.80;9.37;;;;;;;;;;5009857;28;20025;-73
2021/07/26 09:55:34;;;;;;;9.90;8.88;;;;;;;;;;5014910;28;20040;-74
2021/07/26 09:58:02;;;;;;;9.65;8.65;;;;;;;;;;5016005;28;20022;-73
2021/07/26 10:00:29;;;;;;;10.95;9.82;;;;;;;;;;5011957;28;20037;-73
2021/07/26 10:02:55;;;;;;;10.10;9.10;;;;;;;;;;5016176;28;20022;-72
2021/07/26 10:05:23;;;;;;;10.98;8.93;;;;;;;;;;5020428;28;20018;-73
2021/07/26 10:07:50;;;;;;;10.15;9.00;;;;;;;;;;5020132;28;20025;-73
2021/07/26 10:10:16;;;;;;;10.27;9.27;;;;;;;;;;5019810;28;20505;-73
2021/07/26 10:12:44;;;;;;;10.45;9.35;;;;;;;;;;5025587;28;20033;-72
2021/07/26 10:15:12;;;;;;;11.52;10.43;;;;;;;;;;5028311;28;20361;-75
2021/07/26 10:17:42;;;;;;;11.55;10.23;;;;;;;;;;5015208;28;20463;-73
2021/07/26 10:20:08;;;;;;;9.75;8.77;;;;;;;;;;5021155;28;20545;-70
2021/07/26 10:22:35;;;;;;;10.40;9.32;;;;;;;;;;5010656;28;20796;-71
2021/07/26 10:25:08;;;;;;;10.93;8.75;;;;;;;;;;5013563;28;20710;-71
2021/07/26 10:27:35;;;;;;;11.18;9.30;;;;;;;;;;5023463;28;20026;-71
2021/07/26 10:30:01;;;;;;;10.82;9.73;;;;;;;;;;5022525;28;20045;-72
2021/07/26 10:32:30;;;;;;;12.15;9.82;;;;;;;;;;5014884;28;20443;-71
2021/07/26 10:34:57;;;;;;;10.32;9.25;;;;;;;;;;5017263;28;20084;-71
2021/07/26 10:37:41;;;;;;;12.00;9.48;;;;;;;;;;5014946;28;20060;-71
2021/07/26 10:40:24;;;;;;;10.10;8.93;;;;;;;;;;5004047;28;20030;-71
2021/07/26 10:42:54;;;;;;;10.38;9.27;;;;;;;;;;5008755;28;20733;-71
2021/07/26 10:45:49;;;;;;;11.02;8.82;;;;;;;;;;5015526;28;20959;-73
2021/07/26 10:48:22;;;;;;;10.35;9.30;;;;;;;;;;5000571;28;20041;-71
2021/07/26 10:50:54;;;;;;;10.45;9.32;;;;;;;;;;5021302;28;20036;-74
2021/07/26 10:53:33;;;;;;;11.23;9.10;;;;;;;;;;5019253;28;20022;-73
2021/07/26 10:56:03;;;;;;;9.85;8.95;;;;;;;;;;5023612;28;20090;-72
2021/07/26 10:58:38;;;;;;;13.85;9.88;;;;;;;;;;5023103;28;20030;-72
2021/07/26 11:01:20;;;;;;;11.10;10.00;;;;;;;;;;5024148;28;20037;-72
2021/07/26 11:03:46;;;;;;;12.90;9.23;;;;;;;;;;5020272;28;20475;-72
2021/07/26 11:06:31;;;;;;;9.57;7.63;;;;;;;;;;5022545;28;20032;-71
2021/07/26 11:09:18;;;;;;;9.43;8.52;;;;;;;;;;5022522;28;20021;-71
2021/07/26 11:11:44;;;;;;;10.32;8.52;;;;;;;;;;5019513;28;20041;-72
2021/07/26 11:14:12;;;;;;;10.43;8.32;;;;;;;;;;5030316;28;20043;-71
2021/07/26 11:16:58;;;;;;;7.90;7.15;;;;;;;;;;5023090;28;20025;-73
2021/07/26 11:19:30;;;;;;;6.88;6.05;;;;;;;;;;5018579;28;20039;-73
2021/07/26 11:21:57;;;;;;;7.45;6.50;;;;;;;;;;5024847;28;20045;-72
2021/07/26 11:24:49;;;;;;;7.53;6.13;;;;;;;;;;5026835;28;20034;-73
2021/07/26 11:27:35;;;;;;;6.25;5.55;;;;;;;;;;5015994;28;20097;-72
2021/07/26 11:30:01;;;;;;;6.97;5.90;;;;;;;;;;5024930;28;20037;-72
2021/07/26 11:32:28;;;;;;;6.97;5.78;;;;;;;;;;5014056;28;20060;-72
2021/07/26 11:34:55;;;;;;;6.07;5.57;;;;;;;;;;5020758;28;20033;-71
2021/07/26 11:37:29;;;;;;;7.93;5.97;;;;;;;;;;5021257;28;20075;-73
2021/07/26 11:40:00;;;;;;;6.20;5.53;;;;;;;;;;5021134;28;20025;-72
2021/07/26 11:42:27;;;;;;;7.30;5.45;;;;;;;;;;5025891;28;20075;-72
2021/07/26 11:44:53;;;;;;;7.70;5.57;;;;;;;;;;5021075;28;20052;-71
2021/07/26 11:47:32;;;;;;;6.63;5.18;;;;;;;;;;5024694;28;20072;-71
2021/07/26 11:49:58;;;;;;;6.82;4.97;;;;;;;;;;5027546;28;20562;-72
2021/07/26 11:52:25;;;;;;;6.80;5.32;;;;;;;;;;5024362;28;20027;-72
2021/07/26 11:54:51;;;;;;;8.82;5.43;;;;;;;;;;5027556;28;20033;-73
2021/07/26 11:57:17;;;;;;;9.57;5.80;;;;;;;;;;5019110;28;20056;-74
2021/07/26 11:59:49;;;;;;;7.88;5.63;;;;;;;;;;5028399;28;20104;-72
2021/07/26 12:02:23;;;;;;;6.20;5.53;;;;;;;;;;5024816;28;20025;-72
2021/07/26 12:04:50;;;;;;;7.05;5.50;;;;;;;;;;5014511;28;20021;-71
2021/07/26 12:07:16;;;;;;;6.30;5.07;;;;;;;;;;5023226;28;20474;-71
2021/07/26 12:09:49;;;;;;;7.47;5.78;;;;;;;;;;5025789;28;20440;-73
2021/07/26 12:12:15;;;;;;;12.35;5.78;;;;;;;;;;5023792;28;20485;-73
2021/07/26 12:14:42;;;;;;;7.75;5.80;;;;;;;;;;5025620;28;20037;-71
2021/07/26 12:17:25;;;;;;;9.68;6.18;;;;;;;;;;5029467;28;20028;-71
2021/07/26 12:20:04;;;;;;;8.77;6.72;;;;;;;;;;5022413;28;20084;-73
2021/07/26 12:22:41;;;;;;;8.85;7.95;;;;;;;;;;5022123;28;20040;-72
2021/07/26 12:25:21;;;;;;;8.93;7.93;;;;;;;;;;5020516;28;20036;-71
2021/07/26 12:28:02;;;;;;;7.95;6.78;;;;;;;;;;5021842;28;20036;-71
2021/07/26 12:30:38;;;;;;;8.40;7.30;;;;;;;;;;5030079;28;20036;-72
2021/07/26 12:33:05;;;;;;;9.60;7.75;;;;;;;;;;5024690;28;20145;-71
2021/07/26 12:35:32;;;;;;;7.45;6.82;;;;;;;;;;5024880;28;20030;-71
2021/07/26 12:38:05;;;;;;;10.40;7.45;;;;;;;;;;5015415;28;20022;-71
2021/07/26 12:40:32;;;;;;;8.25;7.45;;;;;;;;;;5026497;28;20499;-71
2021/07/26 12:43:05;;;;;;;7.63;6.93;;;;;;;;;;5019014;28;20116;-71
2021/07/26 12:45:31;;;;;;;7.82;6.82;;;;;;;;;;5026143;28;20026;-71
2021/07/26 12:47:59;;;;;;;7.00;6.30;;;;;;;;;;5031762;28;20025;-70
2021/07/26 12:50:26;;;;;;;7.45;6.55;;;;;;;;;;5028028;28;20052;-71
2021/07/26 12:52:52;;;;;;;8.80;7.00;;;;;;;;;;5032472;28;20029;-70
2021/07/26 12:55:18;;;;;;;9.82;6.88;;;;;;;;;;5027592;28;20026;-71
2021/07/26 12:57:44;;;;;;;7.93;7.18;;;;;;;;;;5031706;28;20540;-72
2021/07/26 13:00:11;;;;;;;8.38;7.57;;;;;;;;;;5023106;28;20035;-71
2021/07/26 13:02:37;;;;;;;7.50;6.80;;;;;;;;;;5025524;28;20033;-70
2021/07/26 13:05:06;;;;;;;12.73;7.18;;;;;;;;;;5025879;28;20025;-74
2021/07/26 13:07:33;;;;;;;8.30;6.97;;;;;;;;;;5022720;28;20059;-72
2021/07/26 13:09:59;;;;;;;8.30;6.80;;;;;;;;;;5023678;28;20044;-72
2021/07/26 13:12:25;;;;;;;6.55;5.85;;;;;;;;;;5026355;28;20130;-72
2021/07/26 13:14:51;;;;;;;7.10;5.95;;;;;;;;;;5040175;28;20033;-72
2021/07/26 13:17:17;;;;;;;7.53;6.13;;;;;;;;;;5044217;28;20025;-72
2021/07/26 13:19:43;;;;;;;6.70;6.10;;;;;;;;;;5044161;28;20706;-71
2021/07/26 13:22:10;;;;;;;6.78;5.63;;;;;;;;;;5044218;28;20056;-71
2021/07/26 13:24:36;;;;;;;6.40;5.80;;;;;;;;;;5042445;28;20100;-72
2021/07/26 13:27:02;;;;;;;7.68;5.72;;;;;;;;;;5043499;28;20048;-72
2021/07/26 13:29:29;;;;;;;8.15;5.80;;;;;;;;;;5027492;28;20055;-72
2021/07/26 13:31:55;;;;;;;6.82;5.82;;;;;;;;;;5015510;28;20031;-72
2021/07/26 13:34:21;;;;;;;6.57;5.88;;;;;;;;;;5017207;28;20037;-72
2021/07/26 13:36:47;;;;;;;6.03;5.43;;;;;;;;;;5019699;28;20032;-72
2021/07/26 13:39:15;;;;;;;9.63;6.13;;;;;;;;;;5021263;28;20204;-72
2021/07/26 13:41:41;;;;;;;6.40;5.80;;;;;;;;;;5019565;28;20030;-72
2021/07/26 13:44:07;;;;;;;7.53;5.93;;;;;;;;;;5017535;28;20049;-72
2021/07/26 13:46:33;;;;;;;8.73;6.13;;;;;;;;;;5019848;28;20789;-71
2021/07/26 13:49:00;;;;;;;6.70;5.97;;;;;;;;;;5013346;28;20022;-71
2021/07/26 13:51:26;;;;;;;7.32;6.05;;;;;;;;;;5024610;28;20462;-72
2021/07/26 13:53:52;;;;;;;7.35;5.97;;;;;;;;;;5017869;28;20412;-72
2021/07/26 13:56:19;;;;;;;7.68;6.30;;;;;;;;;;5023959;28;20503;-72
2021/07/26 13:58:45;;;;;;;8.30;6.93;;;;;;;;;;5006335;28;20030;-72
2021/07/26 14:01:11;;;;;;;6.88;6.22;;;;;;;;;;5021071;28;20036;-72
2021/07/26 14:03:37;;;;;;;7.28;6.63;;;;;;;;;;5022542;28;20028;-72
2021/07/26 14:06:03;;;;;;;8.65;6.38;;;;;;;;;;5014953;28;20040;-72
2021/07/26 14:08:29;;;;;;;8.18;6.70;;;;;;;;;;5017434;28;20032;-72
2021/07/26 14:10:55;;;;;;;7.57;6.30;;;;;;;;;;5008801;28;20091;-72
2021/07/26 14:13:21;;;;;;;6.60;5.88;;;;;;;;;;5024900;28;20074;-72
2021/07/26 14:15:48;;;;;;;9.38;6.40;;;;;;;;;;5018036;28;20032;-72
2021/07/26 14:18:17;;;;;;;11.15;6.72;;;;;;;;;;5012035;28;20026;-71
2021/07/26 14:20:43;;;;;;;7.50;6.35;;;;;;;;;;5021415;28;20045;-71
2021/07/26 14:23:09;;;;;;;6.40;5.80;;;;;;;;;;5014278;28;20108;-71
2021/07/26 14:25:35;;;;;;;8.07;6.45;;;;;;;;;;5019896;28;20025;-72
2021/07/26 14:28:01;;;;;;;7.70;6.82;;;;;;;;;;5013925;28;20033;-73
2021/07/26 14:30:28;;;;;;;7.78;6.97;;;;;;;;;;5018940;28;20043;-72